Time;durP1;ratioP1;P1;durP2;ratioP2;P2;SDS_P1;SDS_P2;PMS_P1;PMS_P2;Temp;Humidity;BMP_temperature;BMP_pressure;BME280_temperature;BME280_humidity;BME280_pressure;Samples;Min_cycle;Max_cycle;Signal;HPM_P1;HPM_P2
2021/09/20 00:09:15;;;;;;;14.73;7.53;;;;;;;9.28;100.00;100587.59;713992;1179;113982;-82
2021/09/20 00:24:18;;;;;;;14.50;6.83;;;;;;;9.15;100.00;100578.05;713910;1174;115427;-83
2021/09/20 00:39:20;;;;;;;10.88;5.18;;;;;;;9.33;100.00;100593.30;713923;1202;115071;-82
2021/09/20 00:54:22;;;;;;;9.78;5.80;;;;;;;9.38;100.00;100578.04;714220;1199;115362;-83
2021/09/20 01:09:25;;;;;;;9.55;4.98;;;;;;;9.47;100.00;100579.11;714077;1177;114277;-87
2021/09/20 01:24:28;;;;;;;10.15;5.30;;;;;;;9.64;100.00;100577.78;713957;1176;113694;-85
2021/09/20 01:39:33;;;;;;;8.43;5.00;;;;;;;9.57;100.00;100574.81;714042;1200;113830;-84
2021/09/20 01:54:35;;;;;;;9.18;4.08;;;;;;;9.65;100.00;100575.03;714058;1175;114723;-83
2021/09/20 02:09:37;;;;;;;7.65;4.00;;;;;;;9.78;100.00;100560.97;714239;1203;118867;-83
2021/09/20 02:24:40;;;;;;;6.67;4.17;;;;;;;9.81;100.00;100560.72;714244;1200;114730;-83
2021/09/20 02:39:42;;;;;;;6.77;4.17;;;;;;;9.77;100.00;100570.60;714072;1199;114840;-82
2021/09/20 02:54:44;;;;;;;6.35;4.40;;;;;;;9.71;100.00;100570.27;714080;1199;114194;-83
2021/09/20 03:09:46;;;;;;;10.33;4.68;;;;;;;9.68;100.00;100566.10;714222;1200;115123;-84
2021/09/20 03:24:48;;;;;;;8.40;4.55;;;;;;;9.78;100.00;100569.66;714097;1176;114585;-83
2021/09/20 03:39:50;;;;;;;6.68;3.85;;;;;;;9.86;100.00;100568.19;714222;1199;114634;-83
2021/09/20 03:54:52;;;;;;;7.55;4.35;;;;;;;9.79;100.00;100568.70;714300;1176;113650;-84
2021/09/20 04:09:54;;;;;;;4.73;3.20;;;;;;;9.80;100.00;100572.97;714502;1177;114286;-83
2021/09/20 04:24:57;;;;;;;11.13;4.43;;;;;;;9.83;100.00;100571.89;714474;1200;114385;-85
2021/09/20 04:39:59;;;;;;;8.50;4.68;;;;;;;9.80;100.00;100586.06;714858;1199;115450;-82
2021/09/20 04:55:02;;;;;;;9.23;5.05;;;;;;;9.83;100.00;100601.56;714787;1200;114536;-83
2021/09/20 05:10:05;;;;;;;11.10;6.85;;;;;;;9.84;100.00;100605.00;717835;1162;114162;-77
2021/09/20 05:25:09;;;;;;;8.13;4.80;;;;;;;9.86;100.00;100615.36;714215;1199;114143;-77
2021/09/20 05:40:12;;;;;;;10.23;6.55;;;;;;;9.88;100.00;100619.52;713986;1178;113897;-73
2021/09/20 05:55:15;;;;;;;31.98;10.05;;;;;;;9.97;100.00;100613.55;713998;1186;114028;-75
2021/09/20 06:10:18;;;;;;;8.50;5.03;;;;;;;10.15;100.00;100611.23;715257;1177;114731;-79
2021/09/20 06:25:20;;;;;;;9.40;5.60;;;;;;;10.35;100.00;100614.05;716132;1176;114549;-77
2021/09/20 06:40:23;;;;;;;14.68;5.45;;;;;;;10.48;100.00;100619.95;715924;1199;114728;-78
2021/09/20 06:55:26;;;;;;;12.93;9.50;;;;;;;10.68;100.00;100627.97;716404;1199;114540;-77
2021/09/20 07:10:29;;;;;;;6.45;3.83;;;;;;;11.14;100.00;100634.60;716757;1175;114306;-80
2021/09/20 07:25:31;;;;;;;5.55;3.35;;;;;;;11.53;100.00;100640.98;717119;1199;114360;-81
2021/09/20 07:40:34;;;;;;;5.80;2.90;;;;;;;12.01;100.00;100656.11;732171;1198;114392;-79
2021/09/20 07:55:37;;;;;;;9.57;4.87;;;;;;;12.53;100.00;100673.46;725210;1203;113309;-81
2021/09/20 08:10:39;;;;;;;23.80;8.93;;;;;;;12.37;100.00;100672.20;718236;1199;114120;-81
2021/09/20 08:25:42;;;;;;;14.23;7.63;;;;;;;12.42;95.84;100687.59;717089;1197;115627;-79
2021/09/20 08:40:44;;;;;;;11.85;6.78;;;;;;;11.77;100.00;100704.57;715732;1199;115268;-79
2021/09/20 08:55:47;;;;;;;7.97;2.93;;;;;;;12.23;99.20;100706.80;716989;1174;114456;-79
2021/09/20 09:11:01;;;;;;;8.97;5.17;;;;;;;12.40;96.44;100694.77;716309;1199;114379;-77
2021/09/20 09:26:03;;;;;;;4.38;2.63;;;;;;;13.18;96.15;100699.98;718036;1199;114286;-77
2021/09/20 09:41:05;;;;;;;7.20;3.05;;;;;;;14.24;92.35;100707.63;715351;1200;114697;-76
2021/09/20 09:56:14;;;;;;;4.63;3.07;;;;;;;13.09;88.72;100712.22;716137;1175;115489;-76
2021/09/20 10:11:16;;;;;;;88.60;37.83;;;;;;;14.09;88.30;100687.98;715135;1199;113867;-81
2021/09/20 10:26:19;;;;;;;49.20;20.52;;;;;;;13.35;87.37;100706.31;717338;1199;115755;-78
2021/09/20 10:41:23;;;;;;;8.80;5.03;;;;;;;14.08;86.70;100726.74;716139;1200;114601;-74
2021/09/20 10:56:33;;;;;;;15.05;8.45;;;;;;;15.51;77.97;100708.31;715056;1199;115229;-74
2021/09/20 11:11:41;;;;;;;7.03;4.45;;;;;;;15.77;79.53;100720.65;715170;1199;114497;-75
2021/09/20 11:26:47;;;;;;;10.95;4.40;;;;;;;15.86;77.29;100709.14;715629;1199;114346;-75
2021/09/20 11:42:00;;;;;;;4.18;3.15;;;;;;;17.24;76.05;100711.31;715149;1199;114278;-74
2021/09/20 11:57:14;;;;;;;4.75;3.03;;;;;;;18.10;71.31;100714.17;714745;1200;115129;-82
2021/09/20 12:12:18;;;;;;;13.95;5.80;;;;;;;18.57;70.21;100736.30;716847;1199;115865;-87
2021/09/20 12:27:20;;;;;;;7.88;4.10;;;;;;;18.31;69.36;100735.82;716119;1202;115922;-84
2021/09/20 12:42:25;;;;;;;13.23;5.88;;;;;;;18.22;68.88;100721.75;715190;1200;114872;-86
2021/09/20 12:57:29;;;;;;;9.80;5.78;;;;;;;17.53;68.16;100739.09;716848;1174;114399;-77
2021/09/20 13:12:45;;;;;;;6.30;4.18;;;;;;;17.58;69.17;100744.72;714968;1199;114026;-82
2021/09/20 13:27:48;;;;;;;7.70;4.83;;;;;;;17.40;68.16;100747.56;714513;1179;114760;-77
2021/09/20 13:42:51;;;;;;;6.08;3.63;;;;;;;20.57;61.32;100758.77;715160;1199;114946;-77
2021/09/20 13:57:55;;;;;;;7.03;3.48;;;;;;;17.46;64.67;100760.16;714957;1203;113870;-76
2021/09/20 14:12:58;;;;;;;9.63;4.43;;;;;;;25.70;61.92;100760.94;714822;1202;113905;-77
2021/09/20 14:28:05;;;;;;;6.88;5.28;;;;;;;27.70;56.65;100761.62;717027;1176;113997;-87
2021/09/20 14:43:08;;;;;;;12.13;6.18;;;;;;;19.83;57.22;100772.27;717453;1180;114697;-87
2021/09/20 14:58:11;;;;;;;12.40;7.43;;;;;;;17.95;61.89;100779.63;717155;1199;114690;-82
2021/09/20 15:13:14;;;;;;;7.93;5.33;;;;;;;21.57;60.17;100796.17;716346;1199;114581;-83
2021/09/20 15:28:16;;;;;;;7.75;4.40;;;;;;;17.59;61.84;100806.53;714988;1177;114028;-82
2021/09/20 15:43:19;;;;;;;33.90;14.75;;;;;;;15.85;64.86;100815.97;716309;1199;115364;-77
2021/09/20 15:58:21;;;;;;;28.55;16.73;;;;;;;16.22;66.63;100829.85;715085;1199;114983;-77
2021/09/20 16:13:24;;;;;;;31.13;13.93;;;;;;;16.53;65.71;100826.67;714996;1199;114248;-83
2021/09/20 16:28:26;;;;;;;39.03;17.55;;;;;;;15.24;67.23;100826.43;717017;1199;114271;-84
2021/09/20 16:43:29;;;;;;;48.90;26.30;;;;;;;13.94;69.54;100838.00;715078;1174;114816;-71
2021/09/20 16:58:31;;;;;;;55.30;23.20;;;;;;;13.25;71.70;100847.77;716742;1203;114531;-72
2021/09/20 17:13:34;;;;;;;35.00;17.70;;;;;;;12.77;74.31;100860.75;714973;1199;115114;-74
2021/09/20 17:28:37;;;;;;;50.67;22.23;;;;;;;12.62;76.75;100870.84;714451;1203;114636;-74
2021/09/20 17:43:40;;;;;;;97.13;40.63;;;;;;;12.17;78.68;100875.64;714993;1174;114135;-74
2021/09/20 17:58:42;;;;;;;69.88;32.43;;;;;;;11.92;80.12;100882.98;714635;1178;114309;-73
2021/09/20 18:13:45;;;;;;;87.70;40.23;;;;;;;11.85;82.40;100905.47;714724;1198;115922;-72
2021/09/20 18:28:48;;;;;;;91.70;37.63;;;;;;;11.93;83.66;100910.91;714676;1203;115965;-75
2021/09/20 18:43:50;;;;;;;267.73;136.83;;;;;;;11.99;85.51;100921.78;716055;1199;115446;-73
2021/09/20 18:58:53;;;;;;;25.70;17.03;;;;;;;11.65;86.79;100908.81;714962;1199;116040;-74
2021/09/20 19:13:56;;;;;;;47.80;21.80;;;;;;;11.45;87.65;100920.94;715082;1199;114245;-74
2021/09/20 19:28:58;;;;;;;35.48;18.25;;;;;;;10.99;88.63;100915.01;715238;1199;116154;-74
2021/09/20 19:44:01;;;;;;;25.83;13.83;;;;;;;11.02;89.35;100911.31;714762;1200;115099;-73
2021/09/20 19:59:06;;;;;;;31.27;12.77;;;;;;;10.44;89.46;100917.56;714641;1200;115299;-74
2021/09/20 20:14:09;;;;;;;31.53;13.60;;;;;;;10.08;91.54;100935.14;714870;1199;114110;-75
2021/09/20 20:29:11;;;;;;;22.83;12.03;;;;;;;9.81;92.37;100948.52;714800;1203;114377;-76
2021/09/20 20:44:13;;;;;;;31.13;14.53;;;;;;;9.72;92.67;100955.27;715565;1200;115588;-75
2021/09/20 20:59:15;;;;;;;26.88;13.53;;;;;;;9.77;95.65;100955.77;714509;1200;114267;-75
2021/09/20 21:14:18;;;;;;;18.18;10.35;;;;;;;9.82;97.39;100973.78;714438;1200;113662;-74
2021/09/20 21:29:21;;;;;;;15.28;8.53;;;;;;;10.19;98.41;100984.13;714486;1200;114309;-75
2021/09/20 21:44:23;;;;;;;19.68;9.70;;;;;;;10.16;97.55;100985.20;714672;1199;113869;-75
2021/09/20 21:59:25;;;;;;;16.13;7.85;;;;;;;9.95;97.16;100986.78;713758;1176;113945;-74
2021/09/20 22:14:27;;;;;;;12.83;7.78;;;;;;;9.70;97.67;100990.38;713831;1199;115053;-74
2021/09/20 22:29:30;;;;;;;11.77;6.63;;;;;;;9.52;98.46;100984.72;713981;1203;113954;-74
2021/09/20 22:44:32;;;;;;;11.50;7.05;;;;;;;9.29;98.87;100995.05;713899;1203;114166;-75
2021/09/20 22:59:34;;;;;;;14.08;6.50;;;;;;;9.01;98.50;100991.77;713708;1199;114116;-74
2021/09/20 23:14:38;;;;;;;12.68;6.35;;;;;;;8.70;99.30;100988.68;713693;1199;113775;-74
2021/09/20 23:29:40;;;;;;;12.75;6.55;;;;;;;8.68;99.80;100979.27;713692;1199;113693;-73
2021/09/20 23:44:42;;;;;;;15.08;7.70;;;;;;;8.72;100.00;100986.78;713913;1175;114823;-73
2021/09/20 23:59:44;;;;;;;13.23;6.87;;;;;;;8.61;99.74;100992.75;713782;1199;114999;-74
